sensor_id;sensor_type;location;lat;lon;timestamp;P1;durP1;ratioP1;P2;durP2;ratioP2
5965;SDS011;3009;43.224;27.976;2023-02-28T00:01:12;4.93;;;4.53;;
5965;SDS011;3009;43.224;27.976;2023-02-28T00:03:41;6.40;;;5.70;;
5965;SDS011;3009;43.224;27.976;2023-02-28T00:06:10;7.40;;;5.73;;
5965;SDS011;3009;43.224;27.976;2023-02-28T00:08:38;6.70;;;5.67;;
5965;SDS011;3009;43.224;27.976;2023-02-28T00:11:07;5.40;;;4.90;;
5965;SDS011;3009;43.224;27.976;2023-02-28T00:13:38;6.03;;;5.17;;
5965;SDS011;3009;43.224;27.976;2023-02-28T00:16:09;5.60;;;5.10;;
5965;SDS011;3009;43.224;27.976;2023-02-28T00:18:41;5.73;;;5.23;;
5965;SDS011;3009;43.224;27.976;2023-02-28T00:21:09;6.67;;;5.63;;
5965;SDS011;3009;43.224;27.976;2023-02-28T00:23:37;5.97;;;5.43;;
5965;SDS011;3009;43.224;27.976;2023-02-28T00:26:05;6.83;;;6.23;;
5965;SDS011;3009;43.224;27.976;2023-02-28T00:28:34;5.33;;;4.90;;
5965;SDS011;3009;43.224;27.976;2023-02-28T00:31:02;5.40;;;4.90;;
5965;SDS011;3009;43.224;27.976;2023-02-28T00:33:31;6.17;;;5.57;;
5965;SDS011;3009;43.224;27.976;2023-02-28T00:36:04;7.07;;;6.03;;
5965;SDS011;3009;43.224;27.976;2023-02-28T00:38:34;6.70;;;5.60;;
5965;SDS011;3009;43.224;27.976;2023-02-28T00:41:02;6.40;;;5.17;;
5965;SDS011;3009;43.224;27.976;2023-02-28T00:43:31;5.60;;;5.10;;
5965;SDS011;3009;43.224;27.976;2023-02-28T00:46:00;5.63;;;5.10;;
5965;SDS011;3009;43.224;27.976;2023-02-28T00:48:29;6.70;;;5.40;;
5965;SDS011;3009;43.224;27.976;2023-02-28T00:50:57;5.60;;;5.07;;
5965;SDS011;3009;43.224;27.976;2023-02-28T00:53:27;6.53;;;5.60;;
5965;SDS011;3009;43.224;27.976;2023-02-28T00:55:55;6.30;;;5.70;;
5965;SDS011;3009;43.224;27.976;2023-02-28T00:58:23;5.87;;;5.33;;
5965;SDS011;3009;43.224;27.976;2023-02-28T01:00:52;5.80;;;5.30;;
5965;SDS011;3009;43.224;27.976;2023-02-28T01:03:21;5.50;;;4.90;;
5965;SDS011;3009;43.224;27.976;2023-02-28T01:05:49;5.23;;;4.73;;
5965;SDS011;3009;43.224;27.976;2023-02-28T01:08:19;6.10;;;5.50;;
5965;SDS011;3009;43.224;27.976;2023-02-28T01:10:49;5.90;;;5.40;;
5965;SDS011;3009;43.224;27.976;2023-02-28T01:13:17;7.13;;;5.93;;
5965;SDS011;3009;43.224;27.976;2023-02-28T01:15:47;5.50;;;5.00;;
5965;SDS011;3009;43.224;27.976;2023-02-28T01:18:18;5.10;;;4.60;;
5965;SDS011;3009;43.224;27.976;2023-02-28T01:20:47;6.10;;;5.57;;
5965;SDS011;3009;43.224;27.976;2023-02-28T01:23:18;5.43;;;4.93;;
5965;SDS011;3009;43.224;27.976;2023-02-28T01:25:49;6.37;;;5.77;;
5965;SDS011;3009;43.224;27.976;2023-02-28T01:28:18;5.77;;;5.20;;
5965;SDS011;3009;43.224;27.976;2023-02-28T01:30:49;6.07;;;5.47;;
5965;SDS011;3009;43.224;27.976;2023-02-28T01:33:18;6.33;;;5.73;;
5965;SDS011;3009;43.224;27.976;2023-02-28T01:35:46;6.03;;;5.43;;
5965;SDS011;3009;43.224;27.976;2023-02-28T01:38:15;5.50;;;5.00;;
5965;SDS011;3009;43.224;27.976;2023-02-28T01:40:49;5.50;;;5.00;;
5965;SDS011;3009;43.224;27.976;2023-02-28T01:43:20;6.53;;;5.93;;
5965;SDS011;3009;43.224;27.976;2023-02-28T01:45:50;6.13;;;5.53;;
5965;SDS011;3009;43.224;27.976;2023-02-28T01:48:20;6.40;;;5.80;;
5965;SDS011;3009;43.224;27.976;2023-02-28T01:50:52;7.73;;;6.77;;
5965;SDS011;3009;43.224;27.976;2023-02-28T01:53:24;7.30;;;6.20;;
5965;SDS011;3009;43.224;27.976;2023-02-28T01:56:06;6.90;;;6.20;;
5965;SDS011;3009;43.224;27.976;2023-02-28T01:58:36;8.00;;;6.50;;
5965;SDS011;3009;43.224;27.976;2023-02-28T02:01:05;7.40;;;6.50;;
5965;SDS011;3009;43.224;27.976;2023-02-28T02:03:33;6.90;;;6.30;;
5965;SDS011;3009;43.224;27.976;2023-02-28T02:06:03;6.27;;;5.67;;
5965;SDS011;3009;43.224;27.976;2023-02-28T02:08:32;6.40;;;5.80;;
5965;SDS011;3009;43.224;27.976;2023-02-28T02:11:00;5.30;;;4.80;;
5965;SDS011;3009;43.224;27.976;2023-02-28T02:13:36;5.20;;;4.70;;
5965;SDS011;3009;43.224;27.976;2023-02-28T02:16:18;4.60;;;4.20;;
5965;SDS011;3009;43.224;27.976;2023-02-28T02:18:57;5.37;;;4.87;;
5965;SDS011;3009;43.224;27.976;2023-02-28T02:21:45;4.33;;;3.57;;
5965;SDS011;3009;43.224;27.976;2023-02-28T02:24:26;4.30;;;3.87;;
5965;SDS011;3009;43.224;27.976;2023-02-28T02:27:16;4.23;;;3.77;;
5965;SDS011;3009;43.224;27.976;2023-02-28T02:30:04;4.67;;;4.27;;
5965;SDS011;3009;43.224;27.976;2023-02-28T02:32:55;4.43;;;3.97;;
5965;SDS011;3009;43.224;27.976;2023-02-28T02:35:36;5.20;;;4.80;;
5965;SDS011;3009;43.224;27.976;2023-02-28T02:38:13;4.73;;;4.33;;
5965;SDS011;3009;43.224;27.976;2023-02-28T02:40:50;4.80;;;4.40;;
5965;SDS011;3009;43.224;27.976;2023-02-28T02:43:25;3.83;;;3.53;;
5965;SDS011;3009;43.224;27.976;2023-02-28T02:45:59;4.20;;;3.80;;
5965;SDS011;3009;43.224;27.976;2023-02-28T02:48:33;4.17;;;3.87;;
5965;SDS011;3009;43.224;27.976;2023-02-28T02:51:07;4.67;;;4.30;;
5965;SDS011;3009;43.224;27.976;2023-02-28T02:53:42;5.30;;;4.37;;
5965;SDS011;3009;43.224;27.976;2023-02-28T02:56:15;4.27;;;3.97;;
5965;SDS011;3009;43.224;27.976;2023-02-28T02:58:47;4.60;;;4.20;;
5965;SDS011;3009;43.224;27.976;2023-02-28T03:01:18;4.97;;;4.47;;
5965;SDS011;3009;43.224;27.976;2023-02-28T03:03:55;4.77;;;4.37;;
5965;SDS011;3009;43.224;27.976;2023-02-28T03:06:26;4.67;;;4.37;;
5965;SDS011;3009;43.224;27.976;2023-02-28T03:08:55;4.00;;;3.70;;
5965;SDS011;3009;43.224;27.976;2023-02-28T03:11:23;4.23;;;3.93;;
5965;SDS011;3009;43.224;27.976;2023-02-28T03:13:52;4.57;;;4.20;;
5965;SDS011;3009;43.224;27.976;2023-02-28T03:16:32;5.27;;;4.83;;
5965;SDS011;3009;43.224;27.976;2023-02-28T03:19:11;4.83;;;4.40;;
5965;SDS011;3009;43.224;27.976;2023-02-28T03:21:55;4.37;;;3.67;;
5965;SDS011;3009;43.224;27.976;2023-02-28T03:24:37;6.03;;;5.43;;
5965;SDS011;3009;43.224;27.976;2023-02-28T03:27:15;5.37;;;4.87;;
5965;SDS011;3009;43.224;27.976;2023-02-28T03:29:51;5.53;;;5.13;;
5965;SDS011;3009;43.224;27.976;2023-02-28T03:32:28;6.00;;;5.47;;
5965;SDS011;3009;43.224;27.976;2023-02-28T03:35:02;5.50;;;4.97;;
5965;SDS011;3009;43.224;27.976;2023-02-28T03:37:38;5.77;;;5.20;;
5965;SDS011;3009;43.224;27.976;2023-02-28T03:40:10;6.50;;;5.77;;
5965;SDS011;3009;43.224;27.976;2023-02-28T03:42:42;5.77;;;5.03;;
5965;SDS011;3009;43.224;27.976;2023-02-28T03:45:13;6.53;;;5.93;;
5965;SDS011;3009;43.224;27.976;2023-02-28T03:47:46;6.47;;;5.87;;
5965;SDS011;3009;43.224;27.976;2023-02-28T03:50:21;8.00;;;6.40;;
5965;SDS011;3009;43.224;27.976;2023-02-28T03:52:55;6.77;;;6.10;;
5965;SDS011;3009;43.224;27.976;2023-02-28T03:55:28;8.27;;;6.93;;
5965;SDS011;3009;43.224;27.976;2023-02-28T03:58:01;6.97;;;6.27;;
5965;SDS011;3009;43.224;27.976;2023-02-28T04:00:37;7.90;;;6.40;;
5965;SDS011;3009;43.224;27.976;2023-02-28T04:03:08;6.50;;;5.87;;
5965;SDS011;3009;43.224;27.976;2023-02-28T04:05:44;6.83;;;6.07;;
5965;SDS011;3009;43.224;27.976;2023-02-28T04:08:18;7.20;;;5.67;;
5965;SDS011;3009;43.224;27.976;2023-02-28T04:10:48;6.93;;;6.17;;
5965;SDS011;3009;43.224;27.976;2023-02-28T04:13:21;7.57;;;6.83;;
5965;SDS011;3009;43.224;27.976;2023-02-28T04:15:49;6.73;;;6.10;;
5965;SDS011;3009;43.224;27.976;2023-02-28T04:18:18;10.40;;;7.13;;
5965;SDS011;3009;43.224;27.976;2023-02-28T04:20:46;9.00;;;6.87;;
5965;SDS011;3009;43.224;27.976;2023-02-28T04:23:14;5.93;;;5.43;;
5965;SDS011;3009;43.224;27.976;2023-02-28T04:25:43;7.47;;;6.70;;
5965;SDS011;3009;43.224;27.976;2023-02-28T04:28:11;6.93;;;5.93;;
5965;SDS011;3009;43.224;27.976;2023-02-28T04:30:39;8.33;;;7.43;;
5965;SDS011;3009;43.224;27.976;2023-02-28T04:33:07;7.40;;;6.70;;
5965;SDS011;3009;43.224;27.976;2023-02-28T04:35:36;8.17;;;7.30;;
5965;SDS011;3009;43.224;27.976;2023-02-28T04:38:04;9.90;;;7.60;;
5965;SDS011;3009;43.224;27.976;2023-02-28T04:40:32;10.53;;;7.50;;
5965;SDS011;3009;43.224;27.976;2023-02-28T04:43:01;11.07;;;7.90;;
5965;SDS011;3009;43.224;27.976;2023-02-28T04:45:30;9.10;;;7.03;;
5965;SDS011;3009;43.224;27.976;2023-02-28T04:48:00;9.13;;;6.67;;
5965;SDS011;3009;43.224;27.976;2023-02-28T04:50:28;9.40;;;7.50;;
5965;SDS011;3009;43.224;27.976;2023-02-28T04:52:56;10.87;;;7.80;;
5965;SDS011;3009;43.224;27.976;2023-02-28T04:55:25;10.83;;;8.00;;
5965;SDS011;3009;43.224;27.976;2023-02-28T04:57:53;11.37;;;8.23;;
5965;SDS011;3009;43.224;27.976;2023-02-28T05:00:22;10.93;;;7.73;;
5965;SDS011;3009;43.224;27.976;2023-02-28T05:02:51;14.30;;;9.23;;
5965;SDS011;3009;43.224;27.976;2023-02-28T05:05:19;12.17;;;8.87;;
5965;SDS011;3009;43.224;27.976;2023-02-28T05:07:47;12.63;;;9.37;;
5965;SDS011;3009;43.224;27.976;2023-02-28T05:10:18;16.10;;;9.33;;
5965;SDS011;3009;43.224;27.976;2023-02-28T05:12:55;16.87;;;10.17;;
5965;SDS011;3009;43.224;27.976;2023-02-28T05:15:25;16.83;;;9.70;;
5965;SDS011;3009;43.224;27.976;2023-02-28T05:17:53;15.70;;;10.13;;
5965;SDS011;3009;43.224;27.976;2023-02-28T05:20:21;13.07;;;9.20;;
5965;SDS011;3009;43.224;27.976;2023-02-28T05:22:49;14.93;;;9.83;;
5965;SDS011;3009;43.224;27.976;2023-02-28T05:25:20;14.87;;;9.83;;
5965;SDS011;3009;43.224;27.976;2023-02-28T05:27:49;14.33;;;8.97;;
5965;SDS011;3009;43.224;27.976;2023-02-28T05:30:17;17.10;;;9.50;;
5965;SDS011;3009;43.224;27.976;2023-02-28T05:32:49;17.63;;;11.20;;
5965;SDS011;3009;43.224;27.976;2023-02-28T05:35:18;17.50;;;10.73;;
5965;SDS011;3009;43.224;27.976;2023-02-28T05:37:46;20.13;;;12.60;;
5965;SDS011;3009;43.224;27.976;2023-02-28T05:40:15;23.93;;;11.33;;
5965;SDS011;3009;43.224;27.976;2023-02-28T05:42:43;19.53;;;11.67;;
5965;SDS011;3009;43.224;27.976;2023-02-28T05:45:11;22.67;;;13.40;;
5965;SDS011;3009;43.224;27.976;2023-02-28T05:47:41;25.93;;;12.17;;
5965;SDS011;3009;43.224;27.976;2023-02-28T05:50:11;19.50;;;13.40;;
5965;SDS011;3009;43.224;27.976;2023-02-28T05:52:39;21.97;;;13.13;;
5965;SDS011;3009;43.224;27.976;2023-02-28T05:55:07;21.90;;;13.77;;
5965;SDS011;3009;43.224;27.976;2023-02-28T05:57:36;21.33;;;12.57;;
5965;SDS011;3009;43.224;27.976;2023-02-28T06:00:05;21.83;;;13.00;;
5965;SDS011;3009;43.224;27.976;2023-02-28T06:02:34;25.90;;;12.93;;
5965;SDS011;3009;43.224;27.976;2023-02-28T06:05:02;21.20;;;12.63;;
5965;SDS011;3009;43.224;27.976;2023-02-28T06:07:32;25.00;;;12.67;;
5965;SDS011;3009;43.224;27.976;2023-02-28T06:10:00;23.20;;;14.03;;
5965;SDS011;3009;43.224;27.976;2023-02-28T06:12:28;23.40;;;14.10;;
5965;SDS011;3009;43.224;27.976;2023-02-28T06:14:56;22.47;;;14.47;;
5965;SDS011;3009;43.224;27.976;2023-02-28T06:17:24;25.80;;;14.50;;
5965;SDS011;3009;43.224;27.976;2023-02-28T06:19:53;24.70;;;13.60;;
5965;SDS011;3009;43.224;27.976;2023-02-28T06:22:21;31.83;;;15.73;;
5965;SDS011;3009;43.224;27.976;2023-02-28T06:24:51;28.00;;;15.40;;
5965;SDS011;3009;43.224;27.976;2023-02-28T06:27:19;28.30;;;15.40;;
5965;SDS011;3009;43.224;27.976;2023-02-28T06:29:48;30.87;;;14.00;;
5965;SDS011;3009;43.224;27.976;2023-02-28T06:32:16;26.90;;;14.20;;
5965;SDS011;3009;43.224;27.976;2023-02-28T06:34:45;24.77;;;14.17;;
5965;SDS011;3009;43.224;27.976;2023-02-28T06:37:13;25.40;;;14.30;;
5965;SDS011;3009;43.224;27.976;2023-02-28T06:39:41;26.83;;;14.53;;
5965;SDS011;3009;43.224;27.976;2023-02-28T06:42:11;30.20;;;14.63;;
5965;SDS011;3009;43.224;27.976;2023-02-28T06:44:39;26.03;;;14.07;;
5965;SDS011;3009;43.224;27.976;2023-02-28T06:47:09;25.50;;;13.60;;
5965;SDS011;3009;43.224;27.976;2023-02-28T06:49:37;25.47;;;14.30;;
5965;SDS011;3009;43.224;27.976;2023-02-28T06:52:05;25.73;;;12.90;;
5965;SDS011;3009;43.224;27.976;2023-02-28T06:54:33;29.93;;;13.67;;
5965;SDS011;3009;43.224;27.976;2023-02-28T06:57:01;22.10;;;12.40;;
5965;SDS011;3009;43.224;27.976;2023-02-28T06:59:31;20.13;;;11.93;;
5965;SDS011;3009;43.224;27.976;2023-02-28T07:02:01;27.20;;;14.70;;
5965;SDS011;3009;43.224;27.976;2023-02-28T07:04:29;24.70;;;13.83;;
5965;SDS011;3009;43.224;27.976;2023-02-28T07:06:58;23.97;;;13.57;;
5965;SDS011;3009;43.224;27.976;2023-02-28T07:09:26;25.33;;;14.20;;
5965;SDS011;3009;43.224;27.976;2023-02-28T07:11:56;28.53;;;13.70;;
5965;SDS011;3009;43.224;27.976;2023-02-28T07:14:24;21.23;;;12.30;;
5965;SDS011;3009;43.224;27.976;2023-02-28T07:16:54;19.97;;;12.50;;
5965;SDS011;3009;43.224;27.976;2023-02-28T07:19:22;29.10;;;12.50;;
5965;SDS011;3009;43.224;27.976;2023-02-28T07:21:50;19.17;;;12.20;;
5965;SDS011;3009;43.224;27.976;2023-02-28T07:24:18;16.83;;;10.53;;
5965;SDS011;3009;43.224;27.976;2023-02-28T07:26:46;16.60;;;10.27;;
5965;SDS011;3009;43.224;27.976;2023-02-28T07:29:14;17.63;;;10.93;;
5965;SDS011;3009;43.224;27.976;2023-02-28T07:31:42;17.30;;;10.70;;
5965;SDS011;3009;43.224;27.976;2023-02-28T07:34:12;18.77;;;10.33;;
5965;SDS011;3009;43.224;27.976;2023-02-28T07:36:40;22.20;;;12.07;;
5965;SDS011;3009;43.224;27.976;2023-02-28T07:39:08;20.47;;;12.57;;
5965;SDS011;3009;43.224;27.976;2023-02-28T07:41:37;19.23;;;11.30;;
5965;SDS011;3009;43.224;27.976;2023-02-28T07:44:10;19.10;;;10.20;;
5965;SDS011;3009;43.224;27.976;2023-02-28T07:46:38;20.80;;;10.40;;
5965;SDS011;3009;43.224;27.976;2023-02-28T07:49:06;17.47;;;10.53;;
5965;SDS011;3009;43.224;27.976;2023-02-28T07:51:36;16.00;;;9.30;;
5965;SDS011;3009;43.224;27.976;2023-02-28T07:54:04;15.93;;;9.00;;
5965;SDS011;3009;43.224;27.976;2023-02-28T07:56:33;25.33;;;11.37;;
5965;SDS011;3009;43.224;27.976;2023-02-28T07:59:01;16.60;;;10.17;;
5965;SDS011;3009;43.224;27.976;2023-02-28T08:01:29;18.83;;;11.37;;
5965;SDS011;3009;43.224;27.976;2023-02-28T08:03:58;13.57;;;9.70;;
5965;SDS011;3009;43.224;27.976;2023-02-28T08:06:28;13.70;;;9.93;;
5965;SDS011;3009;43.224;27.976;2023-02-28T08:08:57;12.37;;;8.47;;
5965;SDS011;3009;43.224;27.976;2023-02-28T08:11:25;13.50;;;8.80;;
5965;SDS011;3009;43.224;27.976;2023-02-28T08:13:54;13.53;;;9.60;;
5965;SDS011;3009;43.224;27.976;2023-02-28T08:16:22;13.77;;;9.30;;
5965;SDS011;3009;43.224;27.976;2023-02-28T08:18:51;12.70;;;9.13;;
5965;SDS011;3009;43.224;27.976;2023-02-28T08:21:20;11.77;;;9.10;;
5965;SDS011;3009;43.224;27.976;2023-02-28T08:23:49;11.90;;;8.20;;
5965;SDS011;3009;43.224;27.976;2023-02-28T08:26:20;13.00;;;8.50;;
5965;SDS011;3009;43.224;27.976;2023-02-28T08:28:48;14.53;;;8.80;;
5965;SDS011;3009;43.224;27.976;2023-02-28T08:31:16;12.57;;;8.83;;
5965;SDS011;3009;43.224;27.976;2023-02-28T08:33:45;8.93;;;7.53;;
5965;SDS011;3009;43.224;27.976;2023-02-28T08:36:15;11.97;;;8.37;;
5965;SDS011;3009;43.224;27.976;2023-02-28T08:38:43;9.70;;;7.50;;
5965;SDS011;3009;43.224;27.976;2023-02-28T08:41:12;9.90;;;7.50;;
5965;SDS011;3009;43.224;27.976;2023-02-28T08:43:42;9.33;;;7.17;;
5965;SDS011;3009;43.224;27.976;2023-02-28T08:46:10;9.93;;;8.13;;
5965;SDS011;3009;43.224;27.976;2023-02-28T08:48:40;9.83;;;7.43;;
5965;SDS011;3009;43.224;27.976;2023-02-28T08:51:08;9.20;;;6.73;;
5965;SDS011;3009;43.224;27.976;2023-02-28T08:53:38;12.63;;;8.20;;
5965;SDS011;3009;43.224;27.976;2023-02-28T08:56:08;10.43;;;7.47;;
5965;SDS011;3009;43.224;27.976;2023-02-28T08:58:37;7.77;;;6.20;;
5965;SDS011;3009;43.224;27.976;2023-02-28T09:01:11;8.43;;;7.43;;
5965;SDS011;3009;43.224;27.976;2023-02-28T09:03:41;9.63;;;7.60;;
5965;SDS011;3009;43.224;27.976;2023-02-28T09:06:10;8.90;;;7.57;;
5965;SDS011;3009;43.224;27.976;2023-02-28T09:08:39;12.67;;;8.90;;
5965;SDS011;3009;43.224;27.976;2023-02-28T09:11:07;10.63;;;7.67;;
5965;SDS011;3009;43.224;27.976;2023-02-28T09:13:36;10.63;;;7.40;;
5965;SDS011;3009;43.224;27.976;2023-02-28T09:16:05;9.67;;;7.10;;
5965;SDS011;3009;43.224;27.976;2023-02-28T09:18:37;9.33;;;6.77;;
5965;SDS011;3009;43.224;27.976;2023-02-28T09:21:05;8.33;;;6.50;;
5965;SDS011;3009;43.224;27.976;2023-02-28T09:23:34;7.70;;;6.73;;
5965;SDS011;3009;43.224;27.976;2023-02-28T09:26:04;9.47;;;7.27;;
5965;SDS011;3009;43.224;27.976;2023-02-28T09:28:33;8.90;;;6.77;;
5965;SDS011;3009;43.224;27.976;2023-02-28T09:31:01;8.90;;;7.33;;
5965;SDS011;3009;43.224;27.976;2023-02-28T09:33:31;10.90;;;8.67;;
5965;SDS011;3009;43.224;27.976;2023-02-28T09:36:02;11.70;;;8.20;;
5965;SDS011;3009;43.224;27.976;2023-02-28T09:38:31;9.53;;;7.17;;
5965;SDS011;3009;43.224;27.976;2023-02-28T09:41:00;10.00;;;7.77;;
5965;SDS011;3009;43.224;27.976;2023-02-28T09:43:33;9.87;;;8.33;;
5965;SDS011;3009;43.224;27.976;2023-02-28T09:46:06;8.23;;;7.10;;
5965;SDS011;3009;43.224;27.976;2023-02-28T09:48:41;8.23;;;6.43;;
5965;SDS011;3009;43.224;27.976;2023-02-28T09:51:15;8.30;;;6.97;;
5965;SDS011;3009;43.224;27.976;2023-02-28T09:53:57;7.60;;;6.60;;
5965;SDS011;3009;43.224;27.976;2023-02-28T09:56:28;8.10;;;6.53;;
5965;SDS011;3009;43.224;27.976;2023-02-28T09:59:05;11.43;;;8.70;;
5965;SDS011;3009;43.224;27.976;2023-02-28T10:01:43;14.50;;;7.00;;
5965;SDS011;3009;43.224;27.976;2023-02-28T10:04:24;8.90;;;6.93;;
5965;SDS011;3009;43.224;27.976;2023-02-28T10:07:07;10.00;;;6.80;;
5965;SDS011;3009;43.224;27.976;2023-02-28T10:09:50;6.73;;;6.03;;
5965;SDS011;3009;43.224;27.976;2023-02-28T10:12:20;11.87;;;6.87;;
5965;SDS011;3009;43.224;27.976;2023-02-28T10:14:49;11.80;;;8.50;;
5965;SDS011;3009;43.224;27.976;2023-02-28T10:17:21;8.73;;;7.07;;
5965;SDS011;3009;43.224;27.976;2023-02-28T10:19:55;6.93;;;5.97;;
5965;SDS011;3009;43.224;27.976;2023-02-28T10:22:30;12.43;;;7.87;;
5965;SDS011;3009;43.224;27.976;2023-02-28T10:25:04;9.70;;;8.40;;
5965;SDS011;3009;43.224;27.976;2023-02-28T10:27:43;8.17;;;5.40;;
5965;SDS011;3009;43.224;27.976;2023-02-28T10:30:12;10.10;;;7.20;;
5965;SDS011;3009;43.224;27.976;2023-02-28T10:32:43;11.50;;;6.33;;
5965;SDS011;3009;43.224;27.976;2023-02-28T10:35:17;10.20;;;7.00;;
5965;SDS011;3009;43.224;27.976;2023-02-28T10:37:49;6.97;;;5.73;;
5965;SDS011;3009;43.224;27.976;2023-02-28T10:40:26;9.87;;;6.77;;
5965;SDS011;3009;43.224;27.976;2023-02-28T10:42:58;11.40;;;8.20;;
5965;SDS011;3009;43.224;27.976;2023-02-28T10:45:28;8.57;;;6.03;;
5965;SDS011;3009;43.224;27.976;2023-02-28T10:47:59;10.63;;;6.97;;
5965;SDS011;3009;43.224;27.976;2023-02-28T10:50:32;9.10;;;6.63;;
5965;SDS011;3009;43.224;27.976;2023-02-28T10:53:30;9.70;;;7.10;;
5965;SDS011;3009;43.224;27.976;2023-02-28T10:56:20;10.10;;;7.30;;
5965;SDS011;3009;43.224;27.976;2023-02-28T10:58:53;9.10;;;7.57;;
5965;SDS011;3009;43.224;27.976;2023-02-28T11:01:24;9.23;;;7.63;;
5965;SDS011;3009;43.224;27.976;2023-02-28T11:04:01;7.73;;;6.47;;
5965;SDS011;3009;43.224;27.976;2023-02-28T11:06:30;10.47;;;7.40;;
5965;SDS011;3009;43.224;27.976;2023-02-28T11:09:02;9.60;;;7.93;;
5965;SDS011;3009;43.224;27.976;2023-02-28T11:11:41;10.33;;;7.77;;
5965;SDS011;3009;43.224;27.976;2023-02-28T11:14:14;8.43;;;7.17;;
5965;SDS011;3009;43.224;27.976;2023-02-28T11:16:48;12.40;;;8.23;;
5965;SDS011;3009;43.224;27.976;2023-02-28T11:19:18;9.60;;;7.17;;
5965;SDS011;3009;43.224;27.976;2023-02-28T11:21:52;10.50;;;7.70;;
5965;SDS011;3009;43.224;27.976;2023-02-28T11:24:24;9.97;;;7.53;;
5965;SDS011;3009;43.224;27.976;2023-02-28T11:26:55;10.10;;;7.10;;
5965;SDS011;3009;43.224;27.976;2023-02-28T11:29:25;13.57;;;8.87;;
5965;SDS011;3009;43.224;27.976;2023-02-28T11:32:05;12.13;;;8.57;;
5965;SDS011;3009;43.224;27.976;2023-02-28T11:34:41;6.90;;;6.17;;
5965;SDS011;3009;43.224;27.976;2023-02-28T11:37:11;7.00;;;5.90;;
5965;SDS011;3009;43.224;27.976;2023-02-28T11:39:44;10.00;;;7.70;;
5965;SDS011;3009;43.224;27.976;2023-02-28T11:45:19;8.33;;;7.33;;
5965;SDS011;3009;43.224;27.976;2023-02-28T11:47:56;11.30;;;5.83;;
5965;SDS011;3009;43.224;27.976;2023-02-28T11:50:39;12.03;;;7.10;;
5965;SDS011;3009;43.224;27.976;2023-02-28T11:53:17;9.13;;;6.93;;
5965;SDS011;3009;43.224;27.976;2023-02-28T11:55:58;11.90;;;7.23;;
5965;SDS011;3009;43.224;27.976;2023-02-28T11:58:37;8.70;;;7.80;;
5965;SDS011;3009;43.224;27.976;2023-02-28T12:01:32;9.03;;;7.40;;
5965;SDS011;3009;43.224;27.976;2023-02-28T12:04:11;10.30;;;7.17;;
5965;SDS011;3009;43.224;27.976;2023-02-28T12:06:53;9.70;;;7.70;;
5965;SDS011;3009;43.224;27.976;2023-02-28T12:09:31;9.80;;;7.73;;
5965;SDS011;3009;43.224;27.976;2023-02-28T12:12:18;10.40;;;7.50;;
5965;SDS011;3009;43.224;27.976;2023-02-28T12:14:58;13.07;;;7.67;;
5965;SDS011;3009;43.224;27.976;2023-02-28T12:17:47;8.93;;;6.10;;
5965;SDS011;3009;43.224;27.976;2023-02-28T12:20:33;13.93;;;9.30;;
5965;SDS011;3009;43.224;27.976;2023-02-28T12:23:19;12.53;;;9.80;;
5965;SDS011;3009;43.224;27.976;2023-02-28T12:26:02;11.57;;;8.73;;
5965;SDS011;3009;43.224;27.976;2023-02-28T12:28:40;10.43;;;8.57;;
5965;SDS011;3009;43.224;27.976;2023-02-28T12:31:14;9.90;;;8.20;;
5965;SDS011;3009;43.224;27.976;2023-02-28T12:33:50;7.73;;;6.63;;
5965;SDS011;3009;43.224;27.976;2023-02-28T12:36:20;11.50;;;8.57;;
5965;SDS011;3009;43.224;27.976;2023-02-28T12:38:51;10.90;;;8.23;;
5965;SDS011;3009;43.224;27.976;2023-02-28T12:41:25;13.33;;;7.50;;
5965;SDS011;3009;43.224;27.976;2023-02-28T12:44:11;17.83;;;8.37;;
5965;SDS011;3009;43.224;27.976;2023-02-28T12:46:46;14.33;;;9.07;;
5965;SDS011;3009;43.224;27.976;2023-02-28T12:49:17;11.50;;;8.07;;
5965;SDS011;3009;43.224;27.976;2023-02-28T12:51:49;11.30;;;8.10;;
5965;SDS011;3009;43.224;27.976;2023-02-28T12:54:21;13.70;;;8.37;;
5965;SDS011;3009;43.224;27.976;2023-02-28T12:56:55;11.70;;;8.30;;
5965;SDS011;3009;43.224;27.976;2023-02-28T12:59:34;20.07;;;9.40;;
5965;SDS011;3009;43.224;27.976;2023-02-28T13:02:17;12.83;;;8.13;;
5965;SDS011;3009;43.224;27.976;2023-02-28T13:05:12;10.37;;;8.27;;
5965;SDS011;3009;43.224;27.976;2023-02-28T13:08:03;10.53;;;8.13;;
5965;SDS011;3009;43.224;27.976;2023-02-28T13:10:42;12.50;;;9.40;;
5965;SDS011;3009;43.224;27.976;2023-02-28T13:13:15;13.13;;;8.93;;
5965;SDS011;3009;43.224;27.976;2023-02-28T13:16:05;16.20;;;8.20;;
5965;SDS011;3009;43.224;27.976;2023-02-28T13:18:36;13.93;;;8.77;;
5965;SDS011;3009;43.224;27.976;2023-02-28T13:21:09;14.60;;;9.20;;
5965;SDS011;3009;43.224;27.976;2023-02-28T13:24:00;10.83;;;8.77;;
5965;SDS011;3009;43.224;27.976;2023-02-28T13:29:41;14.97;;;10.30;;
5965;SDS011;3009;43.224;27.976;2023-02-28T13:44:19;18.43;;;9.90;;
5965;SDS011;3009;43.224;27.976;2023-02-28T13:56:04;16.20;;;11.00;;
5965;SDS011;3009;43.224;27.976;2023-02-28T13:58:46;24.90;;;10.70;;
5965;SDS011;3009;43.224;27.976;2023-02-28T14:01:23;16.27;;;9.40;;
5965;SDS011;3009;43.224;27.976;2023-02-28T14:04:06;16.03;;;10.50;;
5965;SDS011;3009;43.224;27.976;2023-02-28T14:06:54;17.37;;;11.00;;
5965;SDS011;3009;43.224;27.976;2023-02-28T14:09:25;14.50;;;10.30;;
5965;SDS011;3009;43.224;27.976;2023-02-28T14:11:56;16.73;;;10.30;;
5965;SDS011;3009;43.224;27.976;2023-02-28T14:14:53;16.40;;;10.27;;
5965;SDS011;3009;43.224;27.976;2023-02-28T14:17:23;14.80;;;9.90;;
5965;SDS011;3009;43.224;27.976;2023-02-28T14:19:53;18.63;;;11.23;;
5965;SDS011;3009;43.224;27.976;2023-02-28T14:22:33;16.30;;;10.37;;
5965;SDS011;3009;43.224;27.976;2023-02-28T14:25:16;24.20;;;11.20;;
5965;SDS011;3009;43.224;27.976;2023-02-28T14:27:53;16.27;;;10.10;;
5965;SDS011;3009;43.224;27.976;2023-02-28T14:33:43;18.33;;;11.57;;
5965;SDS011;3009;43.224;27.976;2023-02-28T14:36:26;28.87;;;16.20;;
5965;SDS011;3009;43.224;27.976;2023-02-28T14:38:59;41.73;;;21.27;;
5965;SDS011;3009;43.224;27.976;2023-02-28T14:41:33;44.37;;;20.70;;
5965;SDS011;3009;43.224;27.976;2023-02-28T14:44:13;21.70;;;13.20;;
5965;SDS011;3009;43.224;27.976;2023-02-28T14:46:43;16.53;;;10.97;;
5965;SDS011;3009;43.224;27.976;2023-02-28T14:49:15;15.20;;;9.80;;
5965;SDS011;3009;43.224;27.976;2023-02-28T14:51:45;17.03;;;11.30;;
5965;SDS011;3009;43.224;27.976;2023-02-28T14:54:16;18.80;;;10.10;;
5965;SDS011;3009;43.224;27.976;2023-02-28T14:56:50;13.17;;;10.30;;
5965;SDS011;3009;43.224;27.976;2023-02-28T14:59:26;17.50;;;10.57;;
5965;SDS011;3009;43.224;27.976;2023-02-28T15:02:15;19.43;;;9.77;;
5965;SDS011;3009;43.224;27.976;2023-02-28T15:04:51;17.53;;;9.70;;
5965;SDS011;3009;43.224;27.976;2023-02-28T15:07:21;16.10;;;10.03;;
5965;SDS011;3009;43.224;27.976;2023-02-28T15:10:09;16.97;;;9.57;;
5965;SDS011;3009;43.224;27.976;2023-02-28T15:12:46;14.70;;;10.83;;
5965;SDS011;3009;43.224;27.976;2023-02-28T15:15:20;18.53;;;9.90;;
5965;SDS011;3009;43.224;27.976;2023-02-28T15:18:05;15.67;;;10.00;;
5965;SDS011;3009;43.224;27.976;2023-02-28T15:20:36;16.40;;;10.30;;
5965;SDS011;3009;43.224;27.976;2023-02-28T15:23:07;16.20;;;10.97;;
5965;SDS011;3009;43.224;27.976;2023-02-28T15:25:37;17.57;;;10.00;;
5965;SDS011;3009;43.224;27.976;2023-02-28T15:28:09;15.67;;;10.00;;
5965;SDS011;3009;43.224;27.976;2023-02-28T15:30:50;16.53;;;10.70;;
5965;SDS011;3009;43.224;27.976;2023-02-28T15:33:24;22.30;;;10.40;;
5965;SDS011;3009;43.224;27.976;2023-02-28T15:36:10;17.40;;;10.67;;
5965;SDS011;3009;43.224;27.976;2023-02-28T15:38:41;13.53;;;9.83;;
5965;SDS011;3009;43.224;27.976;2023-02-28T15:41:23;18.93;;;10.60;;
5965;SDS011;3009;43.224;27.976;2023-02-28T15:46:59;19.60;;;10.97;;
5965;SDS011;3009;43.224;27.976;2023-02-28T15:49:29;24.00;;;10.43;;
5965;SDS011;3009;43.224;27.976;2023-02-28T15:52:11;16.20;;;10.57;;
5965;SDS011;3009;43.224;27.976;2023-02-28T15:54:43;16.33;;;10.30;;
5965;SDS011;3009;43.224;27.976;2023-02-28T15:57:15;18.30;;;12.17;;